sensor_id;sensor_type;location;lat;lon;timestamp;temperature;humidity
39655;DHT22;25336;59.944;11.010;2023-05-18T00:01:53;7.90;40.10
39655;DHT22;25336;59.944;11.010;2023-05-18T00:04:19;7.00;39.80
39655;DHT22;25336;59.944;11.010;2023-05-18T00:06:48;6.90;40.10
39655;DHT22;25336;59.944;11.010;2023-05-18T00:09:14;6.90;40.30
39655;DHT22;25336;59.944;11.010;2023-05-18T00:11:40;6.80;40.30
39655;DHT22;25336;59.944;11.010;2023-05-18T00:14:06;6.70;40.50
39655;DHT22;25336;59.944;11.010;2023-05-18T00:16:32;6.70;40.60
39655;DHT22;25336;59.944;11.010;2023-05-18T00:18:58;6.60;40.80
39655;DHT22;25336;59.944;11.010;2023-05-18T00:21:23;7.30;41.20
39655;DHT22;25336;59.944;11.010;2023-05-18T00:23:54;6.50;41.00
39655;DHT22;25336;59.944;11.010;2023-05-18T00:26:20;6.40;41.20
39655;DHT22;25336;59.944;11.010;2023-05-18T00:28:46;7.20;41.80
39655;DHT22;25336;59.944;11.010;2023-05-18T00:31:11;6.30;41.40
39655;DHT22;25336;59.944;11.010;2023-05-18T00:33:37;6.30;41.60
39655;DHT22;25336;59.944;11.010;2023-05-18T00:36:03;6.20;41.60
39655;DHT22;25336;59.944;11.010;2023-05-18T00:38:28;6.20;41.70
39655;DHT22;25336;59.944;11.010;2023-05-18T00:40:54;6.10;41.80
39655;DHT22;25336;59.944;11.010;2023-05-18T00:43:20;6.10;42.00
39655;DHT22;25336;59.944;11.010;2023-05-18T00:45:45;6.00;42.00
39655;DHT22;25336;59.944;11.010;2023-05-18T00:48:11;6.00;42.30
39655;DHT22;25336;59.944;11.010;2023-05-18T00:50:37;5.90;42.40
39655;DHT22;25336;59.944;11.010;2023-05-18T00:53:02;5.90;42.70
39655;DHT22;25336;59.944;11.010;2023-05-18T00:55:28;5.80;42.80
39655;DHT22;25336;59.944;11.010;2023-05-18T00:57:55;6.70;43.20
39655;DHT22;25336;59.944;11.010;2023-05-18T01:00:21;6.10;43.10
39655;DHT22;25336;59.944;11.010;2023-05-18T01:02:47;5.70;43.10
39655;DHT22;25336;59.944;11.010;2023-05-18T01:05:15;5.60;43.30
39655;DHT22;25336;59.944;11.010;2023-05-18T01:07:42;5.60;43.40
39655;DHT22;25336;59.944;11.010;2023-05-18T01:10:10;5.50;43.70
39655;DHT22;25336;59.944;11.010;2023-05-18T01:12:59;5.50;43.80
39655;DHT22;25336;59.944;11.010;2023-05-18T01:15:33;5.40;44.20
39655;DHT22;25336;59.944;11.010;2023-05-18T01:26:29;5.30;44.80
39655;DHT22;25336;59.944;11.010;2023-05-18T01:28:58;5.30;44.30
39655;DHT22;25336;59.944;11.010;2023-05-18T01:31:24;6.20;45.00
39655;DHT22;25336;59.944;11.010;2023-05-18T01:33:50;5.20;44.60
39655;DHT22;25336;59.944;11.010;2023-05-18T01:36:16;5.10;44.70
39655;DHT22;25336;59.944;11.010;2023-05-18T01:38:41;5.10;44.70
39655;DHT22;25336;59.944;11.010;2023-05-18T01:41:24;5.10;44.80
39655;DHT22;25336;59.944;11.010;2023-05-18T01:49:37;4.60;45.30
39655;DHT22;25336;59.944;11.010;2023-05-18T01:52:06;5.00;45.80
39655;DHT22;25336;59.944;11.010;2023-05-18T01:54:36;4.90;45.40
39655;DHT22;25336;59.944;11.010;2023-05-18T01:57:05;4.90;45.60
39655;DHT22;25336;59.944;11.010;2023-05-18T01:59:31;4.90;45.80
39655;DHT22;25336;59.944;11.010;2023-05-18T02:02:01;4.80;45.50
39655;DHT22;25336;59.944;11.010;2023-05-18T02:04:27;4.80;45.70
39655;DHT22;25336;59.944;11.010;2023-05-18T02:06:53;4.80;45.60
39655;DHT22;25336;59.944;11.010;2023-05-18T02:09:20;4.80;45.80
39655;DHT22;25336;59.944;11.010;2023-05-18T02:11:46;4.90;46.10
39655;DHT22;25336;59.944;11.010;2023-05-18T02:14:12;4.70;46.20
39655;DHT22;25336;59.944;11.010;2023-05-18T02:16:38;4.70;46.20
39655;DHT22;25336;59.944;11.010;2023-05-18T02:19:03;4.90;46.50
39655;DHT22;25336;59.944;11.010;2023-05-18T02:21:29;4.60;46.40
39655;DHT22;25336;59.944;11.010;2023-05-18T02:23:55;4.60;46.40
39655;DHT22;25336;59.944;11.010;2023-05-18T02:26:20;4.60;46.60
39655;DHT22;25336;59.944;11.010;2023-05-18T02:28:46;5.50;47.20
39655;DHT22;25336;59.944;11.010;2023-05-18T02:31:12;4.50;46.90
39655;DHT22;25336;59.944;11.010;2023-05-18T02:33:38;4.50;47.00
39655;DHT22;25336;59.944;11.010;2023-05-18T02:36:10;4.50;47.10
39655;DHT22;25336;59.944;11.010;2023-05-18T02:38:38;4.50;47.00
39655;DHT22;25336;59.944;11.010;2023-05-18T02:41:04;4.40;47.00
39655;DHT22;25336;59.944;11.010;2023-05-18T02:43:30;5.30;47.60
39655;DHT22;25336;59.944;11.010;2023-05-18T02:45:56;4.40;47.20
39655;DHT22;25336;59.944;11.010;2023-05-18T02:48:21;4.30;47.20
39655;DHT22;25336;59.944;11.010;2023-05-18T02:50:50;4.30;47.90
39655;DHT22;25336;59.944;11.010;2023-05-18T02:53:16;4.30;47.80
39655;DHT22;25336;59.944;11.010;2023-05-18T02:55:41;4.60;47.70
39655;DHT22;25336;59.944;11.010;2023-05-18T02:58:08;4.30;47.70
39655;DHT22;25336;59.944;11.010;2023-05-18T03:00:34;4.20;47.90
39655;DHT22;25336;59.944;11.010;2023-05-18T03:03:00;4.20;48.00
39655;DHT22;25336;59.944;11.010;2023-05-18T03:05:26;4.20;48.20
39655;DHT22;25336;59.944;11.010;2023-05-18T03:07:52;4.20;48.40
39655;DHT22;25336;59.944;11.010;2023-05-18T03:10:19;4.20;48.30
39655;DHT22;25336;59.944;11.010;2023-05-18T03:12:46;4.20;48.50
39655;DHT22;25336;59.944;11.010;2023-05-18T03:15:12;4.10;48.60
39655;DHT22;25336;59.944;11.010;2023-05-18T03:17:41;4.20;48.80
39655;DHT22;25336;59.944;11.010;2023-05-18T03:20:07;4.10;48.80
39655;DHT22;25336;59.944;11.010;2023-05-18T03:22:38;4.10;48.80
39655;DHT22;25336;59.944;11.010;2023-05-18T03:25:05;4.10;48.90
39655;DHT22;25336;59.944;11.010;2023-05-18T03:27:30;4.10;48.90
39655;DHT22;25336;59.944;11.010;2023-05-18T03:29:56;4.10;48.80
39655;DHT22;25336;59.944;11.010;2023-05-18T03:32:22;4.10;48.90
39655;DHT22;25336;59.944;11.010;2023-05-18T03:34:49;5.00;49.40
39655;DHT22;25336;59.944;11.010;2023-05-18T03:37:16;4.20;49.20
39655;DHT22;25336;59.944;11.010;2023-05-18T03:39:42;4.20;49.20
39655;DHT22;25336;59.944;11.010;2023-05-18T03:42:07;4.20;49.20
39655;DHT22;25336;59.944;11.010;2023-05-18T03:44:33;4.20;49.10
39655;DHT22;25336;59.944;11.010;2023-05-18T03:46:59;4.20;49.10
39655;DHT22;25336;59.944;11.010;2023-05-18T03:49:24;4.20;49.20
39655;DHT22;25336;59.944;11.010;2023-05-18T03:51:50;4.20;49.50
39655;DHT22;25336;59.944;11.010;2023-05-18T03:54:19;4.30;49.70
39655;DHT22;25336;59.944;11.010;2023-05-18T03:56:45;4.30;49.70
39655;DHT22;25336;59.944;11.010;2023-05-18T03:59:11;4.30;49.50
39655;DHT22;25336;59.944;11.010;2023-05-18T04:01:37;5.30;50.10
39655;DHT22;25336;59.944;11.010;2023-05-18T04:04:09;4.40;49.70
39655;DHT22;25336;59.944;11.010;2023-05-18T04:06:42;4.50;49.60
39655;DHT22;25336;59.944;11.010;2023-05-18T04:09:11;4.50;49.70
39655;DHT22;25336;59.944;11.010;2023-05-18T04:11:39;4.50;49.80
39655;DHT22;25336;59.944;11.010;2023-05-18T04:14:06;4.60;49.80
39655;DHT22;25336;59.944;11.010;2023-05-18T04:16:33;3.90;49.40
39655;DHT22;25336;59.944;11.010;2023-05-18T04:18:58;4.60;49.70
39655;DHT22;25336;59.944;11.010;2023-05-18T04:21:24;5.20;50.70
39655;DHT22;25336;59.944;11.010;2023-05-18T04:23:50;4.80;50.10
39655;DHT22;25336;59.944;11.010;2023-05-18T04:26:16;5.30;50.60
39655;DHT22;25336;59.944;11.010;2023-05-18T04:28:44;4.90;50.10
39655;DHT22;25336;59.944;11.010;2023-05-18T04:31:12;4.90;50.10
39655;DHT22;25336;59.944;11.010;2023-05-18T04:33:39;5.50;50.50
39655;DHT22;25336;59.944;11.010;2023-05-18T04:36:05;5.10;50.10
39655;DHT22;25336;59.944;11.010;2023-05-18T04:38:34;5.20;50.10
39655;DHT22;25336;59.944;11.010;2023-05-18T04:40:59;5.50;50.50
39655;DHT22;25336;59.944;11.010;2023-05-18T04:43:29;5.30;50.30
39655;DHT22;25336;59.944;11.010;2023-05-18T04:45:55;5.40;50.20
39655;DHT22;25336;59.944;11.010;2023-05-18T04:48:23;5.40;50.20
39655;DHT22;25336;59.944;11.010;2023-05-18T04:50:50;6.60;50.60
39655;DHT22;25336;59.944;11.010;2023-05-18T04:53:19;6.00;50.20
39655;DHT22;25336;59.944;11.010;2023-05-18T04:55:48;5.70;49.90
39655;DHT22;25336;59.944;11.010;2023-05-18T04:58:14;5.80;49.90
39655;DHT22;25336;59.944;11.010;2023-05-18T05:00:40;6.70;50.20
39655;DHT22;25336;59.944;11.010;2023-05-18T05:03:05;5.90;49.60
39655;DHT22;25336;59.944;11.010;2023-05-18T05:05:33;6.20;49.40
39655;DHT22;25336;59.944;11.010;2023-05-18T05:07:59;6.10;49.10
39655;DHT22;25336;59.944;11.010;2023-05-18T05:10:25;6.20;49.10
39655;DHT22;25336;59.944;11.010;2023-05-18T05:12:52;6.30;49.10
39655;DHT22;25336;59.944;11.010;2023-05-18T05:15:19;6.40;49.00
39655;DHT22;25336;59.944;11.010;2023-05-18T05:17:48;6.50;49.00
39655;DHT22;25336;59.944;11.010;2023-05-18T05:20:14;6.60;48.90
39655;DHT22;25336;59.944;11.010;2023-05-18T05:22:40;6.80;48.80
39655;DHT22;25336;59.944;11.010;2023-05-18T05:25:06;6.90;49.40
39655;DHT22;25336;59.944;11.010;2023-05-18T05:27:32;7.00;48.60
39655;DHT22;25336;59.944;11.010;2023-05-18T05:29:58;7.10;48.60
39655;DHT22;25336;59.944;11.010;2023-05-18T05:32:23;7.70;48.80
39655;DHT22;25336;59.944;11.010;2023-05-18T05:34:49;7.30;48.40
39655;DHT22;25336;59.944;11.010;2023-05-18T05:37:16;7.40;48.40
39655;DHT22;25336;59.944;11.010;2023-05-18T05:39:43;7.50;48.10
39655;DHT22;25336;59.944;11.010;2023-05-18T05:42:09;8.20;48.50
39655;DHT22;25336;59.944;11.010;2023-05-18T05:44:35;7.80;48.30
39655;DHT22;25336;59.944;11.010;2023-05-18T05:47:01;8.00;48.20
39655;DHT22;25336;59.944;11.010;2023-05-18T05:49:27;8.00;48.00
39655;DHT22;25336;59.944;11.010;2023-05-18T05:51:52;8.10;47.70
39655;DHT22;25336;59.944;11.010;2023-05-18T05:54:18;8.30;47.40
39655;DHT22;25336;59.944;11.010;2023-05-18T05:56:44;8.40;47.00
39655;DHT22;25336;59.944;11.010;2023-05-18T05:59:09;8.50;46.60
39655;DHT22;25336;59.944;11.010;2023-05-18T06:01:35;8.60;46.40
39655;DHT22;25336;59.944;11.010;2023-05-18T06:04:01;8.70;46.00
39655;DHT22;25336;59.944;11.010;2023-05-18T06:06:29;9.10;45.80
39655;DHT22;25336;59.944;11.010;2023-05-18T06:08:56;9.80;46.00
39655;DHT22;25336;59.944;11.010;2023-05-18T06:11:21;9.10;45.50
39655;DHT22;25336;59.944;11.010;2023-05-18T06:13:47;9.20;45.40
39655;DHT22;25336;59.944;11.010;2023-05-18T06:16:12;9.30;45.10
39655;DHT22;25336;59.944;11.010;2023-05-18T06:18:38;9.50;44.90
39655;DHT22;25336;59.944;11.010;2023-05-18T06:21:04;9.60;44.60
39655;DHT22;25336;59.944;11.010;2023-05-18T06:23:29;9.70;44.40
39655;DHT22;25336;59.944;11.010;2023-05-18T06:25:55;9.80;44.10
39655;DHT22;25336;59.944;11.010;2023-05-18T06:28:21;9.90;43.30
39655;DHT22;25336;59.944;11.010;2023-05-18T06:30:46;10.00;42.70
39655;DHT22;25336;59.944;11.010;2023-05-18T06:33:12;10.20;42.10
39655;DHT22;25336;59.944;11.010;2023-05-18T06:35:39;10.40;41.90
39655;DHT22;25336;59.944;11.010;2023-05-18T06:38:04;10.30;41.60
39655;DHT22;25336;59.944;11.010;2023-05-18T06:40:30;10.50;41.40
39655;DHT22;25336;59.944;11.010;2023-05-18T06:42:55;10.60;41.10
39655;DHT22;25336;59.944;11.010;2023-05-18T06:45:21;10.70;40.70
39655;DHT22;25336;59.944;11.010;2023-05-18T06:47:48;10.80;40.60
39655;DHT22;25336;59.944;11.010;2023-05-18T06:50:13;10.90;40.30
39655;DHT22;25336;59.944;11.010;2023-05-18T06:52:39;11.00;40.00
39655;DHT22;25336;59.944;11.010;2023-05-18T06:55:05;11.10;39.80
39655;DHT22;25336;59.944;11.010;2023-05-18T06:57:32;11.20;39.80
39655;DHT22;25336;59.944;11.010;2023-05-18T06:59:58;11.30;39.90
39655;DHT22;25336;59.944;11.010;2023-05-18T07:02:23;11.40;39.90
39655;DHT22;25336;59.944;11.010;2023-05-18T07:04:50;11.50;39.50
39655;DHT22;25336;59.944;11.010;2023-05-18T07:07:16;11.60;39.20
39655;DHT22;25336;59.944;11.010;2023-05-18T07:09:42;12.60;39.40
39655;DHT22;25336;59.944;11.010;2023-05-18T07:12:10;11.80;38.80
39655;DHT22;25336;59.944;11.010;2023-05-18T07:14:36;11.80;38.50
39655;DHT22;25336;59.944;11.010;2023-05-18T07:17:03;12.00;38.40
39655;DHT22;25336;59.944;11.010;2023-05-18T07:19:28;12.00;38.10
39655;DHT22;25336;59.944;11.010;2023-05-18T07:21:54;12.10;38.20
39655;DHT22;25336;59.944;11.010;2023-05-18T07:24:21;12.20;37.60
39655;DHT22;25336;59.944;11.010;2023-05-18T07:26:47;11.80;37.00
39655;DHT22;25336;59.944;11.010;2023-05-18T07:29:13;12.40;36.70
39655;DHT22;25336;59.944;11.010;2023-05-18T07:31:38;12.40;36.00
39655;DHT22;25336;59.944;11.010;2023-05-18T07:34:06;12.50;35.70
39655;DHT22;25336;59.944;11.010;2023-05-18T07:36:33;12.60;36.00
39655;DHT22;25336;59.944;11.010;2023-05-18T07:38:59;12.70;35.80
39655;DHT22;25336;59.944;11.010;2023-05-18T07:41:25;12.70;35.70
39655;DHT22;25336;59.944;11.010;2023-05-18T07:43:52;12.80;35.40
39655;DHT22;25336;59.944;11.010;2023-05-18T07:46:18;12.90;35.40
39655;DHT22;25336;59.944;11.010;2023-05-18T07:48:44;12.90;35.20
39655;DHT22;25336;59.944;11.010;2023-05-18T07:51:10;13.00;35.20
39655;DHT22;25336;59.944;11.010;2023-05-18T07:53:37;13.10;34.90
39655;DHT22;25336;59.944;11.010;2023-05-18T07:56:04;13.10;34.80
39655;DHT22;25336;59.944;11.010;2023-05-18T07:58:29;13.20;34.10
39655;DHT22;25336;59.944;11.010;2023-05-18T08:00:55;13.30;33.80
39655;DHT22;25336;59.944;11.010;2023-05-18T08:03:21;13.30;33.60
39655;DHT22;25336;59.944;11.010;2023-05-18T08:05:47;13.30;33.40
39655;DHT22;25336;59.944;11.010;2023-05-18T08:08:12;13.40;33.40
39655;DHT22;25336;59.944;11.010;2023-05-18T08:10:40;13.40;33.20
39655;DHT22;25336;59.944;11.010;2023-05-18T08:13:06;13.50;33.10
39655;DHT22;25336;59.944;11.010;2023-05-18T08:15:32;14.30;33.20
39655;DHT22;25336;59.944;11.010;2023-05-18T08:17:58;13.60;32.90
39655;DHT22;25336;59.944;11.010;2023-05-18T08:20:23;13.60;32.70
39655;DHT22;25336;59.944;11.010;2023-05-18T08:22:50;13.60;32.60
39655;DHT22;25336;59.944;11.010;2023-05-18T08:25:16;13.70;32.90
39655;DHT22;25336;59.944;11.010;2023-05-18T08:27:41;13.70;32.60
39655;DHT22;25336;59.944;11.010;2023-05-18T08:30:08;13.70;32.50
39655;DHT22;25336;59.944;11.010;2023-05-18T08:32:34;13.80;32.20
39655;DHT22;25336;59.944;11.010;2023-05-18T08:35:03;13.80;32.60
39655;DHT22;25336;59.944;11.010;2023-05-18T08:37:29;13.90;32.70
39655;DHT22;25336;59.944;11.010;2023-05-18T08:39:55;14.70;32.80
39655;DHT22;25336;59.944;11.010;2023-05-18T08:42:22;14.30;32.50
39655;DHT22;25336;59.944;11.010;2023-05-18T08:47:27;14.10;31.90
39655;DHT22;25336;59.944;11.010;2023-05-18T08:49:55;14.10;32.20
39655;DHT22;25336;59.944;11.010;2023-05-18T08:52:24;14.20;32.40
39655;DHT22;25336;59.944;11.010;2023-05-18T08:54:53;14.30;32.00
39655;DHT22;25336;59.944;11.010;2023-05-18T08:57:21;14.30;31.80
39655;DHT22;25336;59.944;11.010;2023-05-18T08:59:48;14.30;31.60
39655;DHT22;25336;59.944;11.010;2023-05-18T09:02:16;14.40;31.80
39655;DHT22;25336;59.944;11.010;2023-05-18T09:04:42;14.40;31.60
39655;DHT22;25336;59.944;11.010;2023-05-18T09:07:09;14.40;31.10
39655;DHT22;25336;59.944;11.010;2023-05-18T09:09:36;14.50;30.90
39655;DHT22;25336;59.944;11.010;2023-05-18T09:12:03;14.50;31.10
39655;DHT22;25336;59.944;11.010;2023-05-18T09:14:31;14.50;31.20
39655;DHT22;25336;59.944;11.010;2023-05-18T09:16:56;14.50;31.20
39655;DHT22;25336;59.944;11.010;2023-05-18T09:19:22;14.60;31.50
39655;DHT22;25336;59.944;11.010;2023-05-18T09:21:49;14.60;31.20
39655;DHT22;25336;59.944;11.010;2023-05-18T09:24:14;14.70;31.10
39655;DHT22;25336;59.944;11.010;2023-05-18T09:26:40;14.70;31.20
39655;DHT22;25336;59.944;11.010;2023-05-18T09:29:17;14.80;31.20
39655;DHT22;25336;59.944;11.010;2023-05-18T09:31:44;14.80;31.20
39655;DHT22;25336;59.944;11.010;2023-05-18T09:34:11;14.90;30.50
39655;DHT22;25336;59.944;11.010;2023-05-18T09:36:37;14.90;30.80
39655;DHT22;25336;59.944;11.010;2023-05-18T09:39:11;15.00;30.70
39655;DHT22;25336;59.944;11.010;2023-05-18T09:41:39;15.00;29.80
39655;DHT22;25336;59.944;11.010;2023-05-18T09:44:06;15.00;30.40
39655;DHT22;25336;59.944;11.010;2023-05-18T09:46:36;15.10;31.20
39655;DHT22;25336;59.944;11.010;2023-05-18T09:49:03;15.10;30.80
39655;DHT22;25336;59.944;11.010;2023-05-18T09:51:29;15.20;30.70
39655;DHT22;25336;59.944;11.010;2023-05-18T09:53:57;15.20;30.90
39655;DHT22;25336;59.944;11.010;2023-05-18T09:56:24;15.30;30.90
39655;DHT22;25336;59.944;11.010;2023-05-18T09:58:51;15.40;30.90
39655;DHT22;25336;59.944;11.010;2023-05-18T10:01:18;15.50;30.50
39655;DHT22;25336;59.944;11.010;2023-05-18T10:03:43;15.60;30.60
39655;DHT22;25336;59.944;11.010;2023-05-18T10:06:12;15.60;30.70
39655;DHT22;25336;59.944;11.010;2023-05-18T10:08:39;15.70;30.60
39655;DHT22;25336;59.944;11.010;2023-05-18T10:11:05;16.80;30.60
39655;DHT22;25336;59.944;11.010;2023-05-18T10:13:33;15.80;30.00
39655;DHT22;25336;59.944;11.010;2023-05-18T10:16:00;15.80;29.90
39655;DHT22;25336;59.944;11.010;2023-05-18T10:18:34;15.90;30.00
39655;DHT22;25336;59.944;11.010;2023-05-18T10:21:02;15.90;29.80
39655;DHT22;25336;59.944;11.010;2023-05-18T10:23:33;15.90;30.00
39655;DHT22;25336;59.944;11.010;2023-05-18T10:26:03;16.00;30.20
39655;DHT22;25336;59.944;11.010;2023-05-18T10:28:45;16.00;30.10
39655;DHT22;25336;59.944;11.010;2023-05-18T10:31:14;16.10;30.00
39655;DHT22;25336;59.944;11.010;2023-05-18T10:33:40;16.20;29.70
39655;DHT22;25336;59.944;11.010;2023-05-18T10:36:09;16.20;29.70
39655;DHT22;25336;59.944;11.010;2023-05-18T10:38:36;16.30;29.50
39655;DHT22;25336;59.944;11.010;2023-05-18T10:41:06;16.30;29.30
39655;DHT22;25336;59.944;11.010;2023-05-18T10:43:35;16.40;29.40
39655;DHT22;25336;59.944;11.010;2023-05-18T10:46:01;16.40;28.70
39655;DHT22;25336;59.944;11.010;2023-05-18T10:48:28;16.50;28.90
39655;DHT22;25336;59.944;11.010;2023-05-18T10:50:56;16.50;29.30
39655;DHT22;25336;59.944;11.010;2023-05-18T10:53:26;16.60;29.10
39655;DHT22;25336;59.944;11.010;2023-05-18T10:55:52;16.60;29.20
39655;DHT22;25336;59.944;11.010;2023-05-18T10:58:24;16.40;29.00
39655;DHT22;25336;59.944;11.010;2023-05-18T11:00:56;16.80;29.00
39655;DHT22;25336;59.944;11.010;2023-05-18T11:03:22;16.70;28.90
39655;DHT22;25336;59.944;11.010;2023-05-18T11:06:01;16.80;29.30
39655;DHT22;25336;59.944;11.010;2023-05-18T11:08:27;16.90;28.90
39655;DHT22;25336;59.944;11.010;2023-05-18T11:11:03;16.90;28.80
39655;DHT22;25336;59.944;11.010;2023-05-18T11:13:34;16.90;28.60
39655;DHT22;25336;59.944;11.010;2023-05-18T11:16:03;17.00;29.00
39655;DHT22;25336;59.944;11.010;2023-05-18T11:18:50;17.10;29.30
39655;DHT22;25336;59.944;11.010;2023-05-18T11:24:46;17.20;28.50
39655;DHT22;25336;59.944;11.010;2023-05-18T11:27:13;16.70;28.30
39655;DHT22;25336;59.944;11.010;2023-05-18T11:29:41;17.40;28.90
39655;DHT22;25336;59.944;11.010;2023-05-18T11:32:26;17.70;29.30
39655;DHT22;25336;59.944;11.010;2023-05-18T11:34:53;17.50;28.70
39655;DHT22;25336;59.944;11.010;2023-05-18T11:40:11;17.70;28.80
39655;DHT22;25336;59.944;11.010;2023-05-18T11:42:37;17.70;29.30
39655;DHT22;25336;59.944;11.010;2023-05-18T11:45:11;17.80;29.00
39655;DHT22;25336;59.944;11.010;2023-05-18T11:47:38;17.80;28.20
39655;DHT22;25336;59.944;11.010;2023-05-18T11:50:08;18.50;28.10
39655;DHT22;25336;59.944;11.010;2023-05-18T11:52:50;17.80;28.00
39655;DHT22;25336;59.944;11.010;2023-05-18T11:55:18;17.90;28.30
39655;DHT22;25336;59.944;11.010;2023-05-18T11:57:47;17.80;28.30
39655;DHT22;25336;59.944;11.010;2023-05-18T12:00:13;17.80;28.60
39655;DHT22;25336;59.944;11.010;2023-05-18T12:02:47;17.80;28.50
39655;DHT22;25336;59.944;11.010;2023-05-18T12:05:14;17.80;28.20
39655;DHT22;25336;59.944;11.010;2023-05-18T12:07:42;18.60;28.70
39655;DHT22;25336;59.944;11.010;2023-05-18T12:10:10;17.90;28.30
39655;DHT22;25336;59.944;11.010;2023-05-18T12:12:36;17.90;28.40
39655;DHT22;25336;59.944;11.010;2023-05-18T12:15:04;18.00;28.50
39655;DHT22;25336;59.944;11.010;2023-05-18T12:17:47;18.00;28.20
39655;DHT22;25336;59.944;11.010;2023-05-18T12:20:14;18.10;28.20
39655;DHT22;25336;59.944;11.010;2023-05-18T12:22:41;18.20;28.50
39655;DHT22;25336;59.944;11.010;2023-05-18T12:25:08;18.10;28.50
39655;DHT22;25336;59.944;11.010;2023-05-18T12:27:38;18.20;28.10
39655;DHT22;25336;59.944;11.010;2023-05-18T12:30:09;18.20;28.10
39655;DHT22;25336;59.944;11.010;2023-05-18T12:32:38;18.30;28.10
39655;DHT22;25336;59.944;11.010;2023-05-18T12:35:08;18.30;28.20
39655;DHT22;25336;59.944;11.010;2023-05-18T12:37:41;18.40;28.70
39655;DHT22;25336;59.944;11.010;2023-05-18T12:40:07;18.50;28.30
39655;DHT22;25336;59.944;11.010;2023-05-18T12:42:33;18.60;28.40
39655;DHT22;25336;59.944;11.010;2023-05-18T12:44:59;18.60;28.10
39655;DHT22;25336;59.944;11.010;2023-05-18T12:47:26;18.60;28.20
39655;DHT22;25336;59.944;11.010;2023-05-18T12:49:54;18.70;27.80
39655;DHT22;25336;59.944;11.010;2023-05-18T12:52:20;18.70;27.70
39655;DHT22;25336;59.944;11.010;2023-05-18T12:54:51;19.00;28.00
39655;DHT22;25336;59.944;11.010;2023-05-18T12:57:21;18.80;28.00
39655;DHT22;25336;59.944;11.010;2023-05-18T12:59:51;19.10;28.30
39655;DHT22;25336;59.944;11.010;2023-05-18T13:02:35;18.90;28.30
39655;DHT22;25336;59.944;11.010;2023-05-18T13:07:27;19.00;28.40
39655;DHT22;25336;59.944;11.010;2023-05-18T13:09:52;19.20;28.20
39655;DHT22;25336;59.944;11.010;2023-05-18T13:15:20;19.30;27.80
39655;DHT22;25336;59.944;11.010;2023-05-18T13:18:07;19.40;27.20
39655;DHT22;25336;59.944;11.010;2023-05-18T13:20:40;19.40;27.30
39655;DHT22;25336;59.944;11.010;2023-05-18T13:23:11;19.40;27.30
39655;DHT22;25336;59.944;11.010;2023-05-18T13:25:38;19.50;27.30
39655;DHT22;25336;59.944;11.010;2023-05-18T13:28:05;19.50;27.50
39655;DHT22;25336;59.944;11.010;2023-05-18T13:30:31;19.50;27.90
39655;DHT22;25336;59.944;11.010;2023-05-18T13:32:58;19.50;27.30
39655;DHT22;25336;59.944;11.010;2023-05-18T13:35:24;19.60;27.80
39655;DHT22;25336;59.944;11.010;2023-05-18T13:37:50;19.60;27.80
39655;DHT22;25336;59.944;11.010;2023-05-18T13:40:17;19.60;27.80
39655;DHT22;25336;59.944;11.010;2023-05-18T13:42:44;19.90;28.00
39655;DHT22;25336;59.944;11.010;2023-05-18T13:45:11;19.70;28.30
39655;DHT22;25336;59.944;11.010;2023-05-18T13:47:40;19.80;28.50
39655;DHT22;25336;59.944;11.010;2023-05-18T13:50:07;19.90;28.20
39655;DHT22;25336;59.944;11.010;2023-05-18T13:52:34;20.00;28.10
39655;DHT22;25336;59.944;11.010;2023-05-18T13:55:01;20.10;28.10
39655;DHT22;25336;59.944;11.010;2023-05-18T13:57:26;20.10;27.70
39655;DHT22;25336;59.944;11.010;2023-05-18T13:59:52;20.20;27.40
39655;DHT22;25336;59.944;11.010;2023-05-18T14:02:18;20.20;27.50
39655;DHT22;25336;59.944;11.010;2023-05-18T14:04:44;20.30;27.20
39655;DHT22;25336;59.944;11.010;2023-05-18T14:07:09;20.30;27.50
39655;DHT22;25336;59.944;11.010;2023-05-18T14:09:35;20.40;27.70
39655;DHT22;25336;59.944;11.010;2023-05-18T14:12:01;20.50;27.60
39655;DHT22;25336;59.944;11.010;2023-05-18T14:14:29;20.60;27.40
39655;DHT22;25336;59.944;11.010;2023-05-18T14:16:55;20.60;27.40
39655;DHT22;25336;59.944;11.010;2023-05-18T14:19:21;21.10;26.70
39655;DHT22;25336;59.944;11.010;2023-05-18T14:21:46;20.60;26.80
39655;DHT22;25336;59.944;11.010;2023-05-18T14:24:12;21.10;26.80
39655;DHT22;25336;59.944;11.010;2023-05-18T14:26:39;21.00;27.00
39655;DHT22;25336;59.944;11.010;2023-05-18T14:29:05;20.70;26.80
39655;DHT22;25336;59.944;11.010;2023-05-18T14:31:31;20.90;27.50
39655;DHT22;25336;59.944;11.010;2023-05-18T14:33:56;20.80;27.00
39655;DHT22;25336;59.944;11.010;2023-05-18T14:36:22;20.80;27.20
39655;DHT22;25336;59.944;11.010;2023-05-18T14:38:47;20.90;27.30
39655;DHT22;25336;59.944;11.010;2023-05-18T14:41:13;20.90;27.10
39655;DHT22;25336;59.944;11.010;2023-05-18T14:43:39;21.80;27.00
39655;DHT22;25336;59.944;11.010;2023-05-18T14:46:05;21.00;26.80
39655;DHT22;25336;59.944;11.010;2023-05-18T14:48:30;21.00;27.00
39655;DHT22;25336;59.944;11.010;2023-05-18T14:50:56;21.10;27.00
39655;DHT22;25336;59.944;11.010;2023-05-18T14:53:22;21.10;27.40
39655;DHT22;25336;59.944;11.010;2023-05-18T14:55:47;21.20;27.30
39655;DHT22;25336;59.944;11.010;2023-05-18T14:58:13;21.20;27.40
39655;DHT22;25336;59.944;11.010;2023-05-18T15:00:40;21.30;27.10
39655;DHT22;25336;59.944;11.010;2023-05-18T15:03:05;21.40;27.20
39655;DHT22;25336;59.944;11.010;2023-05-18T15:05:32;21.50;27.00
39655;DHT22;25336;59.944;11.010;2023-05-18T15:07:58;21.50;27.10
39655;DHT22;25336;59.944;11.010;2023-05-18T15:10:23;21.50;27.00
39655;DHT22;25336;59.944;11.010;2023-05-18T15:12:50;21.60;26.60
39655;DHT22;25336;59.944;11.010;2023-05-18T15:15:15;21.60;26.90
39655;DHT22;25336;59.944;11.010;2023-05-18T15:17:41;21.60;26.90
39655;DHT22;25336;59.944;11.010;2023-05-18T15:20:08;21.60;27.10
39655;DHT22;25336;59.944;11.010;2023-05-18T15:22:34;21.60;26.90
39655;DHT22;25336;59.944;11.010;2023-05-18T15:25:04;21.70;26.60
39655;DHT22;25336;59.944;11.010;2023-05-18T15:27:32;21.70;26.40
39655;DHT22;25336;59.944;11.010;2023-05-18T15:29:58;21.80;26.60
39655;DHT22;25336;59.944;11.010;2023-05-18T15:32:24;21.80;26.80
39655;DHT22;25336;59.944;11.010;2023-05-18T15:34:49;21.80;26.50
39655;DHT22;25336;59.944;11.010;2023-05-18T15:37:19;21.90;26.30
39655;DHT22;25336;59.944;11.010;2023-05-18T15:39:45;21.80;26.10
39655;DHT22;25336;59.944;11.010;2023-05-18T15:42:12;21.80;26.10
39655;DHT22;25336;59.944;11.010;2023-05-18T15:44:37;21.80;26.20
39655;DHT22;25336;59.944;11.010;2023-05-18T15:47:03;21.70;26.40
39655;DHT22;25336;59.944;11.010;2023-05-18T15:49:29;21.70;26.40
39655;DHT22;25336;59.944;11.010;2023-05-18T15:51:55;21.70;26.30